sensor_id;sensor_type;location;lat;lon;timestamp;temperature;humidity
67899;DHT22;54699;51.796;10.956;2023-02-13T00:02:01;16.60;55.70
67899;DHT22;54699;51.796;10.956;2023-02-13T00:04:28;16.60;55.60
67899;DHT22;54699;51.796;10.956;2023-02-13T00:06:54;16.60;55.80
67899;DHT22;54699;51.796;10.956;2023-02-13T00:09:21;16.60;55.70
67899;DHT22;54699;51.796;10.956;2023-02-13T00:11:49;16.50;55.70
67899;DHT22;54699;51.796;10.956;2023-02-13T00:14:16;16.60;55.70
67899;DHT22;54699;51.796;10.956;2023-02-13T00:16:42;16.60;55.70
67899;DHT22;54699;51.796;10.956;2023-02-13T00:19:09;16.60;55.70
67899;DHT22;54699;51.796;10.956;2023-02-13T00:21:36;16.50;55.50
67899;DHT22;54699;51.796;10.956;2023-02-13T00:24:03;16.50;55.60
67899;DHT22;54699;51.796;10.956;2023-02-13T00:26:30;16.60;55.60
67899;DHT22;54699;51.796;10.956;2023-02-13T00:28:58;16.60;55.70
67899;DHT22;54699;51.796;10.956;2023-02-13T00:31:25;16.50;55.70
67899;DHT22;54699;51.796;10.956;2023-02-13T00:33:51;16.50;55.60
67899;DHT22;54699;51.796;10.956;2023-02-13T00:36:19;16.50;55.60
67899;DHT22;54699;51.796;10.956;2023-02-13T00:38:48;16.50;55.70
67899;DHT22;54699;51.796;10.956;2023-02-13T00:41:15;16.50;55.70
67899;DHT22;54699;51.796;10.956;2023-02-13T00:43:42;16.50;55.60
67899;DHT22;54699;51.796;10.956;2023-02-13T00:46:11;16.50;55.70
67899;DHT22;54699;51.796;10.956;2023-02-13T00:48:38;16.50;55.50
67899;DHT22;54699;51.796;10.956;2023-02-13T00:51:05;16.50;55.60
67899;DHT22;54699;51.796;10.956;2023-02-13T00:53:33;16.50;55.50
67899;DHT22;54699;51.796;10.956;2023-02-13T00:56:01;16.50;55.60
67899;DHT22;54699;51.796;10.956;2023-02-13T00:58:28;16.50;55.60
67899;DHT22;54699;51.796;10.956;2023-02-13T01:00:55;16.50;55.70
67899;DHT22;54699;51.796;10.956;2023-02-13T01:03:23;16.50;55.60
67899;DHT22;54699;51.796;10.956;2023-02-13T01:05:50;16.50;55.70
67899;DHT22;54699;51.796;10.956;2023-02-13T01:08:18;16.50;55.70
67899;DHT22;54699;51.796;10.956;2023-02-13T01:10:46;16.50;55.60
67899;DHT22;54699;51.796;10.956;2023-02-13T01:13:14;16.50;55.60
67899;DHT22;54699;51.796;10.956;2023-02-13T01:15:43;16.50;55.60
67899;DHT22;54699;51.796;10.956;2023-02-13T01:18:11;16.50;55.70
67899;DHT22;54699;51.796;10.956;2023-02-13T01:20:40;16.50;55.60
67899;DHT22;54699;51.796;10.956;2023-02-13T01:23:08;16.50;55.50
67899;DHT22;54699;51.796;10.956;2023-02-13T01:25:38;16.40;55.60
67899;DHT22;54699;51.796;10.956;2023-02-13T01:28:05;16.50;55.50
67899;DHT22;54699;51.796;10.956;2023-02-13T01:30:32;16.50;55.50
67899;DHT22;54699;51.796;10.956;2023-02-13T01:32:58;16.50;55.50
67899;DHT22;54699;51.796;10.956;2023-02-13T01:35:25;16.50;55.60
67899;DHT22;54699;51.796;10.956;2023-02-13T01:37:53;16.50;55.50
67899;DHT22;54699;51.796;10.956;2023-02-13T01:40:20;16.50;55.60
67899;DHT22;54699;51.796;10.956;2023-02-13T01:42:47;16.50;55.50
67899;DHT22;54699;51.796;10.956;2023-02-13T01:45:22;16.50;55.80
67899;DHT22;54699;51.796;10.956;2023-02-13T01:47:51;16.40;55.50
67899;DHT22;54699;51.796;10.956;2023-02-13T01:50:23;16.50;55.50
67899;DHT22;54699;51.796;10.956;2023-02-13T01:52:56;16.50;55.50
67899;DHT22;54699;51.796;10.956;2023-02-13T01:55:25;16.40;55.30
67899;DHT22;54699;51.796;10.956;2023-02-13T01:57:54;16.40;55.50
67899;DHT22;54699;51.796;10.956;2023-02-13T02:00:26;16.40;55.40
67899;DHT22;54699;51.796;10.956;2023-02-13T02:02:54;16.40;55.40
67899;DHT22;54699;51.796;10.956;2023-02-13T02:05:26;16.40;55.40
67899;DHT22;54699;51.796;10.956;2023-02-13T02:07:57;16.40;55.40
67899;DHT22;54699;51.796;10.956;2023-02-13T02:10:27;16.40;55.50
67899;DHT22;54699;51.796;10.956;2023-02-13T02:12:57;16.40;55.50
67899;DHT22;54699;51.796;10.956;2023-02-13T02:15:30;16.40;55.50
67899;DHT22;54699;51.796;10.956;2023-02-13T02:17:57;16.40;55.50
67899;DHT22;54699;51.796;10.956;2023-02-13T02:20:27;16.40;55.50
67899;DHT22;54699;51.796;10.956;2023-02-13T02:26:31;16.40;55.40
67899;DHT22;54699;51.796;10.956;2023-02-13T02:29:20;16.40;55.30
67899;DHT22;54699;51.796;10.956;2023-02-13T02:32:16;16.40;55.30
67899;DHT22;54699;51.796;10.956;2023-02-13T02:34:53;16.40;55.30
67899;DHT22;54699;51.796;10.956;2023-02-13T02:37:31;16.40;55.30
67899;DHT22;54699;51.796;10.956;2023-02-13T02:40:15;16.40;55.30
67899;DHT22;54699;51.796;10.956;2023-02-13T02:42:52;16.40;55.30
67899;DHT22;54699;51.796;10.956;2023-02-13T02:45:27;16.40;55.30
67899;DHT22;54699;51.796;10.956;2023-02-13T02:48:06;16.40;55.40
67899;DHT22;54699;51.796;10.956;2023-02-13T02:50:56;16.40;55.50
67899;DHT22;54699;51.796;10.956;2023-02-13T02:53:30;16.40;55.30
67899;DHT22;54699;51.796;10.956;2023-02-13T02:56:05;16.40;55.30
67899;DHT22;54699;51.796;10.956;2023-02-13T02:58:37;16.40;55.20
67899;DHT22;54699;51.796;10.956;2023-02-13T03:01:24;16.40;55.50
67899;DHT22;54699;51.796;10.956;2023-02-13T03:04:15;16.40;55.50
67899;DHT22;54699;51.796;10.956;2023-02-13T03:07:03;16.40;55.40
67899;DHT22;54699;51.796;10.956;2023-02-13T03:09:34;16.40;55.40
67899;DHT22;54699;51.796;10.956;2023-02-13T03:12:22;16.30;55.20
67899;DHT22;54699;51.796;10.956;2023-02-13T03:15:10;16.40;55.40
67899;DHT22;54699;51.796;10.956;2023-02-13T03:17:36;16.40;55.40
67899;DHT22;54699;51.796;10.956;2023-02-13T03:20:25;16.40;55.30
67899;DHT22;54699;51.796;10.956;2023-02-13T03:23:16;16.40;55.40
67899;DHT22;54699;51.796;10.956;2023-02-13T03:29:00;16.40;55.50
67899;DHT22;54699;51.796;10.956;2023-02-13T03:31:56;16.40;55.30
67899;DHT22;54699;51.796;10.956;2023-02-13T03:34:29;16.40;55.30
67899;DHT22;54699;51.796;10.956;2023-02-13T03:37:17;16.30;55.20
67899;DHT22;54699;51.796;10.956;2023-02-13T03:40:11;16.40;55.40
67899;DHT22;54699;51.796;10.956;2023-02-13T03:42:44;16.40;55.30
67899;DHT22;54699;51.796;10.956;2023-02-13T03:45:17;16.40;55.30
67899;DHT22;54699;51.796;10.956;2023-02-13T03:48:06;16.40;55.30
67899;DHT22;54699;51.796;10.956;2023-02-13T03:50:54;16.40;55.40
67899;DHT22;54699;51.796;10.956;2023-02-13T03:53:24;16.40;55.30
67899;DHT22;54699;51.796;10.956;2023-02-13T03:55:53;16.40;55.30
67899;DHT22;54699;51.796;10.956;2023-02-13T03:58:41;16.40;55.40
67899;DHT22;54699;51.796;10.956;2023-02-13T04:01:30;16.40;55.40
67899;DHT22;54699;51.796;10.956;2023-02-13T04:04:01;16.30;55.20
67899;DHT22;54699;51.796;10.956;2023-02-13T04:06:35;16.30;55.30
67899;DHT22;54699;51.796;10.956;2023-02-13T04:09:11;16.40;55.30
67899;DHT22;54699;51.796;10.956;2023-02-13T04:11:39;16.30;55.10
67899;DHT22;54699;51.796;10.956;2023-02-13T04:14:14;16.30;55.10
67899;DHT22;54699;51.796;10.956;2023-02-13T04:16:46;16.30;55.20
67899;DHT22;54699;51.796;10.956;2023-02-13T04:19:16;16.30;55.30
67899;DHT22;54699;51.796;10.956;2023-02-13T04:21:44;16.30;55.20
67899;DHT22;54699;51.796;10.956;2023-02-13T04:24:16;16.30;55.10
67899;DHT22;54699;51.796;10.956;2023-02-13T04:26:43;16.30;55.20
67899;DHT22;54699;51.796;10.956;2023-02-13T04:29:11;16.30;55.30
67899;DHT22;54699;51.796;10.956;2023-02-13T04:31:38;16.30;55.30
67899;DHT22;54699;51.796;10.956;2023-02-13T04:34:05;16.30;55.10
67899;DHT22;54699;51.796;10.956;2023-02-13T04:36:32;16.30;55.20
67899;DHT22;54699;51.796;10.956;2023-02-13T04:38:58;16.30;55.20
67899;DHT22;54699;51.796;10.956;2023-02-13T04:41:26;16.30;55.20
67899;DHT22;54699;51.796;10.956;2023-02-13T04:43:53;16.30;55.20
67899;DHT22;54699;51.796;10.956;2023-02-13T04:46:20;16.30;55.10
67899;DHT22;54699;51.796;10.956;2023-02-13T04:48:46;16.30;55.10
67899;DHT22;54699;51.796;10.956;2023-02-13T04:51:13;16.30;55.20
67899;DHT22;54699;51.796;10.956;2023-02-13T04:53:40;16.30;55.10
67899;DHT22;54699;51.796;10.956;2023-02-13T04:56:07;16.30;55.20
67899;DHT22;54699;51.796;10.956;2023-02-13T04:58:35;16.30;55.10
67899;DHT22;54699;51.796;10.956;2023-02-13T05:01:02;16.30;55.20
67899;DHT22;54699;51.796;10.956;2023-02-13T05:03:28;16.30;55.20
67899;DHT22;54699;51.796;10.956;2023-02-13T05:05:55;16.40;55.10
67899;DHT22;54699;51.796;10.956;2023-02-13T05:08:22;16.40;55.10
67899;DHT22;54699;51.796;10.956;2023-02-13T05:10:48;16.40;55.10
67899;DHT22;54699;51.796;10.956;2023-02-13T05:13:15;16.40;55.00
67899;DHT22;54699;51.796;10.956;2023-02-13T05:15:47;16.40;54.80
67899;DHT22;54699;51.796;10.956;2023-02-13T05:18:14;16.40;54.80
67899;DHT22;54699;51.796;10.956;2023-02-13T05:20:41;16.50;54.70
67899;DHT22;54699;51.796;10.956;2023-02-13T05:23:08;16.50;54.80
67899;DHT22;54699;51.796;10.956;2023-02-13T05:25:47;16.50;54.60
67899;DHT22;54699;51.796;10.956;2023-02-13T05:28:14;16.50;54.40
67899;DHT22;54699;51.796;10.956;2023-02-13T05:31:00;16.50;54.50
67899;DHT22;54699;51.796;10.956;2023-02-13T05:33:27;16.60;54.40
67899;DHT22;54699;51.796;10.956;2023-02-13T05:35:53;16.60;54.30
67899;DHT22;54699;51.796;10.956;2023-02-13T05:38:20;16.50;54.40
67899;DHT22;54699;51.796;10.956;2023-02-13T05:40:47;16.60;54.60
67899;DHT22;54699;51.796;10.956;2023-02-13T05:43:13;16.60;54.30
67899;DHT22;54699;51.796;10.956;2023-02-13T05:45:40;16.50;54.60
67899;DHT22;54699;51.796;10.956;2023-02-13T05:48:08;16.60;54.30
67899;DHT22;54699;51.796;10.956;2023-02-13T05:50:35;16.50;53.90
67899;DHT22;54699;51.796;10.956;2023-02-13T05:53:02;16.50;54.30
67899;DHT22;54699;51.796;10.956;2023-02-13T05:55:29;16.60;53.70
67899;DHT22;54699;51.796;10.956;2023-02-13T05:57:56;16.60;53.70
67899;DHT22;54699;51.796;10.956;2023-02-13T06:00:24;16.60;53.40
67899;DHT22;54699;51.796;10.956;2023-02-13T06:02:51;16.60;53.80
67899;DHT22;54699;51.796;10.956;2023-02-13T06:05:19;16.60;53.90
67899;DHT22;54699;51.796;10.956;2023-02-13T06:07:50;16.60;53.60
67899;DHT22;54699;51.796;10.956;2023-02-13T06:10:17;16.60;53.40
67899;DHT22;54699;51.796;10.956;2023-02-13T06:12:44;16.70;53.10
67899;DHT22;54699;51.796;10.956;2023-02-13T06:15:11;16.60;53.30
67899;DHT22;54699;51.796;10.956;2023-02-13T06:17:37;16.60;53.60
67899;DHT22;54699;51.796;10.956;2023-02-13T06:20:05;16.70;53.80
67899;DHT22;54699;51.796;10.956;2023-02-13T06:22:34;16.80;53.50
67899;DHT22;54699;51.796;10.956;2023-02-13T06:25:01;16.70;53.50
67899;DHT22;54699;51.796;10.956;2023-02-13T06:27:28;16.70;53.40
67899;DHT22;54699;51.796;10.956;2023-02-13T06:29:54;16.80;53.40
67899;DHT22;54699;51.796;10.956;2023-02-13T06:32:22;16.80;53.10
67899;DHT22;54699;51.796;10.956;2023-02-13T06:34:48;16.80;53.10
67899;DHT22;54699;51.796;10.956;2023-02-13T06:37:15;16.80;52.40
67899;DHT22;54699;51.796;10.956;2023-02-13T06:39:44;16.70;52.90
67899;DHT22;54699;51.796;10.956;2023-02-13T06:42:11;16.70;52.70
67899;DHT22;54699;51.796;10.956;2023-02-13T06:44:37;16.70;53.00
67899;DHT22;54699;51.796;10.956;2023-02-13T06:47:04;16.70;53.00
67899;DHT22;54699;51.796;10.956;2023-02-13T06:49:31;16.80;52.60
67899;DHT22;54699;51.796;10.956;2023-02-13T06:51:58;16.80;52.40
67899;DHT22;54699;51.796;10.956;2023-02-13T06:54:25;16.70;52.30
67899;DHT22;54699;51.796;10.956;2023-02-13T06:56:53;16.70;52.80
67899;DHT22;54699;51.796;10.956;2023-02-13T06:59:20;16.70;52.60
67899;DHT22;54699;51.796;10.956;2023-02-13T07:01:47;16.80;52.30
67899;DHT22;54699;51.796;10.956;2023-02-13T07:04:14;16.70;51.70
67899;DHT22;54699;51.796;10.956;2023-02-13T07:06:41;16.70;52.50
67899;DHT22;54699;51.796;10.956;2023-02-13T07:09:08;16.70;52.80
67899;DHT22;54699;51.796;10.956;2023-02-13T07:11:37;16.70;52.00
67899;DHT22;54699;51.796;10.956;2023-02-13T07:14:06;16.80;52.70
67899;DHT22;54699;51.796;10.956;2023-02-13T07:16:33;16.90;52.70
67899;DHT22;54699;51.796;10.956;2023-02-13T07:19:02;16.90;52.60
67899;DHT22;54699;51.796;10.956;2023-02-13T07:21:29;16.90;52.60
67899;DHT22;54699;51.796;10.956;2023-02-13T07:23:56;17.00;52.60
67899;DHT22;54699;51.796;10.956;2023-02-13T07:26:23;17.00;52.60
67899;DHT22;54699;51.796;10.956;2023-02-13T07:28:50;17.00;52.50
67899;DHT22;54699;51.796;10.956;2023-02-13T07:31:19;16.90;52.50
67899;DHT22;54699;51.796;10.956;2023-02-13T07:33:47;17.00;52.60
67899;DHT22;54699;51.796;10.956;2023-02-13T07:36:14;16.90;52.50
67899;DHT22;54699;51.796;10.956;2023-02-13T07:38:41;17.00;52.60
67899;DHT22;54699;51.796;10.956;2023-02-13T07:41:08;16.90;52.70
67899;DHT22;54699;51.796;10.956;2023-02-13T07:43:35;16.90;52.70
67899;DHT22;54699;51.796;10.956;2023-02-13T07:46:02;16.90;52.70
67899;DHT22;54699;51.796;10.956;2023-02-13T07:48:38;16.90;52.70
67899;DHT22;54699;51.796;10.956;2023-02-13T07:51:06;17.00;52.70
67899;DHT22;54699;51.796;10.956;2023-02-13T07:53:32;17.00;52.90
67899;DHT22;54699;51.796;10.956;2023-02-13T07:56:03;16.90;52.90
67899;DHT22;54699;51.796;10.956;2023-02-13T07:58:30;17.00;52.80
67899;DHT22;54699;51.796;10.956;2023-02-13T08:00:57;17.00;52.90
67899;DHT22;54699;51.796;10.956;2023-02-13T08:03:24;17.00;52.90
67899;DHT22;54699;51.796;10.956;2023-02-13T08:05:52;17.00;52.90
67899;DHT22;54699;51.796;10.956;2023-02-13T08:08:19;17.00;52.90
67899;DHT22;54699;51.796;10.956;2023-02-13T08:10:46;17.00;52.80
67899;DHT22;54699;51.796;10.956;2023-02-13T08:13:30;17.00;53.10
67899;DHT22;54699;51.796;10.956;2023-02-13T08:15:57;17.00;53.20
67899;DHT22;54699;51.796;10.956;2023-02-13T08:18:24;17.00;53.10
67899;DHT22;54699;51.796;10.956;2023-02-13T08:20:52;17.00;53.20
67899;DHT22;54699;51.796;10.956;2023-02-13T08:23:19;17.00;53.20
67899;DHT22;54699;51.796;10.956;2023-02-13T08:25:46;17.00;53.30
67899;DHT22;54699;51.796;10.956;2023-02-13T08:28:14;17.00;53.40
67899;DHT22;54699;51.796;10.956;2023-02-13T08:30:41;17.00;53.30
67899;DHT22;54699;51.796;10.956;2023-02-13T08:33:07;17.00;52.60
67899;DHT22;54699;51.796;10.956;2023-02-13T08:35:34;16.90;53.30
67899;DHT22;54699;51.796;10.956;2023-02-13T08:38:03;16.80;53.30
67899;DHT22;54699;51.796;10.956;2023-02-13T08:40:31;16.80;53.00
67899;DHT22;54699;51.796;10.956;2023-02-13T08:42:59;17.00;52.80
67899;DHT22;54699;51.796;10.956;2023-02-13T08:45:28;17.10;53.20
67899;DHT22;54699;51.796;10.956;2023-02-13T08:47:56;17.20;53.10
67899;DHT22;54699;51.796;10.956;2023-02-13T08:50:23;17.30;52.90
67899;DHT22;54699;51.796;10.956;2023-02-13T08:52:58;17.40;52.80
67899;DHT22;54699;51.796;10.956;2023-02-13T08:55:27;17.50;52.90
67899;DHT22;54699;51.796;10.956;2023-02-13T08:57:58;17.60;52.90
67899;DHT22;54699;51.796;10.956;2023-02-13T09:00:27;17.70;53.10
67899;DHT22;54699;51.796;10.956;2023-02-13T09:03:01;17.80;52.90
67899;DHT22;54699;51.796;10.956;2023-02-13T09:05:29;17.80;51.90
67899;DHT22;54699;51.796;10.956;2023-02-13T09:07:58;17.70;52.40
67899;DHT22;54699;51.796;10.956;2023-02-13T09:10:27;17.70;52.90
67899;DHT22;54699;51.796;10.956;2023-02-13T09:12:54;17.50;52.50
67899;DHT22;54699;51.796;10.956;2023-02-13T09:15:21;17.50;53.20
67899;DHT22;54699;51.796;10.956;2023-02-13T09:17:47;17.40;52.90
67899;DHT22;54699;51.796;10.956;2023-02-13T09:20:14;17.50;53.60
67899;DHT22;54699;51.796;10.956;2023-02-13T09:22:41;17.50;53.70
67899;DHT22;54699;51.796;10.956;2023-02-13T09:25:08;17.40;53.70
67899;DHT22;54699;51.796;10.956;2023-02-13T09:27:37;17.50;54.00
67899;DHT22;54699;51.796;10.956;2023-02-13T09:30:04;17.50;54.30
67899;DHT22;54699;51.796;10.956;2023-02-13T09:32:32;17.60;54.20
67899;DHT22;54699;51.796;10.956;2023-02-13T09:34:59;17.50;53.60
67899;DHT22;54699;51.796;10.956;2023-02-13T09:37:28;17.50;53.40
67899;DHT22;54699;51.796;10.956;2023-02-13T09:39:54;17.50;54.30
67899;DHT22;54699;51.796;10.956;2023-02-13T09:42:22;17.50;54.50
67899;DHT22;54699;51.796;10.956;2023-02-13T09:44:55;17.50;54.50
67899;DHT22;54699;51.796;10.956;2023-02-13T09:47:27;17.50;54.80
67899;DHT22;54699;51.796;10.956;2023-02-13T09:49:57;17.50;54.60
67899;DHT22;54699;51.796;10.956;2023-02-13T09:52:30;17.50;54.90
67899;DHT22;54699;51.796;10.956;2023-02-13T09:54:58;17.40;54.40
67899;DHT22;54699;51.796;10.956;2023-02-13T09:57:26;17.30;54.60
67899;DHT22;54699;51.796;10.956;2023-02-13T10:00:00;17.30;54.30
67899;DHT22;54699;51.796;10.956;2023-02-13T10:02:43;17.20;52.50
67899;DHT22;54699;51.796;10.956;2023-02-13T10:05:27;17.30;53.60
67899;DHT22;54699;51.796;10.956;2023-02-13T10:08:07;17.30;54.40
67899;DHT22;54699;51.796;10.956;2023-02-13T10:10:49;17.30;54.20
67899;DHT22;54699;51.796;10.956;2023-02-13T10:13:27;17.30;54.80
67899;DHT22;54699;51.796;10.956;2023-02-13T10:16:08;17.30;54.50
67899;DHT22;54699;51.796;10.956;2023-02-13T10:18:41;17.30;54.60
67899;DHT22;54699;51.796;10.956;2023-02-13T10:21:12;17.30;54.40
67899;DHT22;54699;51.796;10.956;2023-02-13T10:23:40;17.40;54.70
67899;DHT22;54699;51.796;10.956;2023-02-13T10:26:12;17.40;54.80
67899;DHT22;54699;51.796;10.956;2023-02-13T10:28:45;17.50;54.60
67899;DHT22;54699;51.796;10.956;2023-02-13T10:31:38;17.40;53.50
67899;DHT22;54699;51.796;10.956;2023-02-13T10:34:09;17.40;53.70
67899;DHT22;54699;51.796;10.956;2023-02-13T10:36:41;17.50;53.70
67899;DHT22;54699;51.796;10.956;2023-02-13T10:39:15;17.50;53.60
67899;DHT22;54699;51.796;10.956;2023-02-13T10:41:50;17.60;53.70
67899;DHT22;54699;51.796;10.956;2023-02-13T10:44:31;17.70;53.20
67899;DHT22;54699;51.796;10.956;2023-02-13T10:47:08;17.80;52.80
67899;DHT22;54699;51.796;10.956;2023-02-13T10:49:48;17.90;52.70
67899;DHT22;54699;51.796;10.956;2023-02-13T10:52:29;18.00;53.50
67899;DHT22;54699;51.796;10.956;2023-02-13T10:55:13;18.10;53.50
67899;DHT22;54699;51.796;10.956;2023-02-13T10:57:56;18.20;52.80
67899;DHT22;54699;51.796;10.956;2023-02-13T11:00:34;18.20;52.60
67899;DHT22;54699;51.796;10.956;2023-02-13T11:03:08;18.30;52.80
67899;DHT22;54699;51.796;10.956;2023-02-13T11:05:42;18.40;53.30
67899;DHT22;54699;51.796;10.956;2023-02-13T11:08:12;18.40;52.50
67899;DHT22;54699;51.796;10.956;2023-02-13T11:10:43;18.20;52.80
67899;DHT22;54699;51.796;10.956;2023-02-13T11:13:14;18.30;52.70
67899;DHT22;54699;51.796;10.956;2023-02-13T11:15:42;18.40;52.70
67899;DHT22;54699;51.796;10.956;2023-02-13T11:18:24;18.10;52.50
67899;DHT22;54699;51.796;10.956;2023-02-13T11:21:00;18.00;52.30
67899;DHT22;54699;51.796;10.956;2023-02-13T11:23:34;17.90;52.50
67899;DHT22;54699;51.796;10.956;2023-02-13T11:26:04;17.90;52.60
67899;DHT22;54699;51.796;10.956;2023-02-13T11:28:36;17.90;53.70
67899;DHT22;54699;51.796;10.956;2023-02-13T11:31:09;17.80;52.70
67899;DHT22;54699;51.796;10.956;2023-02-13T11:33:38;17.80;52.80
67899;DHT22;54699;51.796;10.956;2023-02-13T11:36:07;17.70;53.40
67899;DHT22;54699;51.796;10.956;2023-02-13T11:38:36;17.80;52.90
67899;DHT22;54699;51.796;10.956;2023-02-13T11:41:04;17.70;54.20
67899;DHT22;54699;51.796;10.956;2023-02-13T11:43:33;17.70;53.70
67899;DHT22;54699;51.796;10.956;2023-02-13T11:46:03;17.80;54.80
67899;DHT22;54699;51.796;10.956;2023-02-13T11:48:32;17.80;54.20
67899;DHT22;54699;51.796;10.956;2023-02-13T11:51:01;17.70;54.30
67899;DHT22;54699;51.796;10.956;2023-02-13T11:53:29;17.70;53.40
67899;DHT22;54699;51.796;10.956;2023-02-13T11:56:02;17.60;53.40
67899;DHT22;54699;51.796;10.956;2023-02-13T11:58:31;17.70;54.10
67899;DHT22;54699;51.796;10.956;2023-02-13T12:01:09;17.70;53.60
67899;DHT22;54699;51.796;10.956;2023-02-13T12:04:02;17.70;53.60
67899;DHT22;54699;51.796;10.956;2023-02-13T12:06:32;17.70;53.20
67899;DHT22;54699;51.796;10.956;2023-02-13T12:09:04;17.60;52.90
67899;DHT22;54699;51.796;10.956;2023-02-13T12:11:38;17.70;52.90
67899;DHT22;54699;51.796;10.956;2023-02-13T12:14:09;17.80;53.40
67899;DHT22;54699;51.796;10.956;2023-02-13T12:16:39;17.70;53.20
67899;DHT22;54699;51.796;10.956;2023-02-13T12:19:10;17.70;52.70
67899;DHT22;54699;51.796;10.956;2023-02-13T12:21:48;17.80;53.90
67899;DHT22;54699;51.796;10.956;2023-02-13T12:24:40;17.80;53.80
67899;DHT22;54699;51.796;10.956;2023-02-13T12:27:21;17.80;54.40
67899;DHT22;54699;51.796;10.956;2023-02-13T12:30:11;17.70;53.90
67899;DHT22;54699;51.796;10.956;2023-02-13T12:32:56;17.70;53.50
67899;DHT22;54699;51.796;10.956;2023-02-13T12:35:33;17.70;54.40
67899;DHT22;54699;51.796;10.956;2023-02-13T12:38:23;17.80;54.70
67899;DHT22;54699;51.796;10.956;2023-02-13T12:41:06;17.70;53.70
67899;DHT22;54699;51.796;10.956;2023-02-13T12:46:55;17.50;52.90
67899;DHT22;54699;51.796;10.956;2023-02-13T12:49:44;17.70;52.90
67899;DHT22;54699;51.796;10.956;2023-02-13T12:52:26;17.70;52.70
67899;DHT22;54699;51.796;10.956;2023-02-13T12:55:09;17.80;52.60
67899;DHT22;54699;51.796;10.956;2023-02-13T12:57:48;17.80;51.40
67899;DHT22;54699;51.796;10.956;2023-02-13T13:00:28;17.80;51.10
67899;DHT22;54699;51.796;10.956;2023-02-13T13:03:17;17.80;51.20
67899;DHT22;54699;51.796;10.956;2023-02-13T13:06:12;17.70;51.10
67899;DHT22;54699;51.796;10.956;2023-02-13T13:09:08;17.70;51.00
67899;DHT22;54699;51.796;10.956;2023-02-13T13:12:03;17.60;51.30
67899;DHT22;54699;51.796;10.956;2023-02-13T13:14:41;17.60;51.50
67899;DHT22;54699;51.796;10.956;2023-02-13T13:17:18;17.70;51.00
67899;DHT22;54699;51.796;10.956;2023-02-13T13:19:59;17.80;51.40
67899;DHT22;54699;51.796;10.956;2023-02-13T13:22:40;17.80;51.50
67899;DHT22;54699;51.796;10.956;2023-02-13T13:25:14;17.80;51.40
67899;DHT22;54699;51.796;10.956;2023-02-13T13:27:50;17.70;51.20
67899;DHT22;54699;51.796;10.956;2023-02-13T13:30:22;17.70;51.40
67899;DHT22;54699;51.796;10.956;2023-02-13T13:32:53;17.70;51.50
67899;DHT22;54699;51.796;10.956;2023-02-13T13:35:23;17.60;51.40
67899;DHT22;54699;51.796;10.956;2023-02-13T13:37:50;17.60;51.60
67899;DHT22;54699;51.796;10.956;2023-02-13T13:40:30;17.60;51.10
67899;DHT22;54699;51.796;10.956;2023-02-13T13:43:06;17.60;51.40
67899;DHT22;54699;51.796;10.956;2023-02-13T13:45:46;17.60;52.20
67899;DHT22;54699;51.796;10.956;2023-02-13T13:48:30;17.70;52.00
67899;DHT22;54699;51.796;10.956;2023-02-13T13:51:06;17.70;51.60
67899;DHT22;54699;51.796;10.956;2023-02-13T13:53:35;17.70;51.40
67899;DHT22;54699;51.796;10.956;2023-02-13T13:56:42;17.70;50.60
67899;DHT22;54699;51.796;10.956;2023-02-13T14:02:42;17.80;51.60
67899;DHT22;54699;51.796;10.956;2023-02-13T14:05:20;17.80;51.30
67899;DHT22;54699;51.796;10.956;2023-02-13T14:07:50;17.80;51.20
67899;DHT22;54699;51.796;10.956;2023-02-13T14:13:38;17.70;51.50
67899;DHT22;54699;51.796;10.956;2023-02-13T14:16:08;17.70;51.90
67899;DHT22;54699;51.796;10.956;2023-02-13T14:18:36;17.70;51.50
67899;DHT22;54699;51.796;10.956;2023-02-13T14:21:08;17.70;51.60
67899;DHT22;54699;51.796;10.956;2023-02-13T14:23:42;17.60;51.90
67899;DHT22;54699;51.796;10.956;2023-02-13T14:29:19;17.60;50.80
67899;DHT22;54699;51.796;10.956;2023-02-13T14:31:57;17.50;51.00
67899;DHT22;54699;51.796;10.956;2023-02-13T14:34:27;17.50;51.90
67899;DHT22;54699;51.796;10.956;2023-02-13T14:42:59;17.60;51.00
67899;DHT22;54699;51.796;10.956;2023-02-13T14:45:35;17.50;51.00
67899;DHT22;54699;51.796;10.956;2023-02-13T14:48:12;17.50;50.90
67899;DHT22;54699;51.796;10.956;2023-02-13T14:50:43;17.60;51.00
67899;DHT22;54699;51.796;10.956;2023-02-13T14:53:16;17.50;51.50
67899;DHT22;54699;51.796;10.956;2023-02-13T14:55:49;17.60;51.20
67899;DHT22;54699;51.796;10.956;2023-02-13T14:58:22;17.50;51.30
67899;DHT22;54699;51.796;10.956;2023-02-13T15:00:53;17.50;51.10
67899;DHT22;54699;51.796;10.956;2023-02-13T15:03:26;17.50;51.30
67899;DHT22;54699;51.796;10.956;2023-02-13T15:05:58;17.50;52.70
67899;DHT22;54699;51.796;10.956;2023-02-13T15:08:26;17.50;52.50
67899;DHT22;54699;51.796;10.956;2023-02-13T15:10:57;17.40;52.00
67899;DHT22;54699;51.796;10.956;2023-02-13T15:13:25;17.40;52.70
67899;DHT22;54699;51.796;10.956;2023-02-13T15:15:59;17.30;51.80
67899;DHT22;54699;51.796;10.956;2023-02-13T15:18:29;17.30;52.30
67899;DHT22;54699;51.796;10.956;2023-02-13T15:21:00;17.40;54.60
67899;DHT22;54699;51.796;10.956;2023-02-13T15:23:28;17.40;54.80
67899;DHT22;54699;51.796;10.956;2023-02-13T15:25:57;17.40;53.50
67899;DHT22;54699;51.796;10.956;2023-02-13T15:28:25;17.40;54.80
67899;DHT22;54699;51.796;10.956;2023-02-13T15:30:53;17.40;54.70
67899;DHT22;54699;51.796;10.956;2023-02-13T15:33:23;17.40;54.50
67899;DHT22;54699;51.796;10.956;2023-02-13T15:35:56;17.40;54.80
67899;DHT22;54699;51.796;10.956;2023-02-13T15:38:25;17.40;54.70
67899;DHT22;54699;51.796;10.956;2023-02-13T15:40:54;17.40;54.40
67899;DHT22;54699;51.796;10.956;2023-02-13T15:43:25;17.40;54.80
67899;DHT22;54699;51.796;10.956;2023-02-13T15:45:59;17.40;54.10
67899;DHT22;54699;51.796;10.956;2023-02-13T15:48:31;17.40;53.90
67899;DHT22;54699;51.796;10.956;2023-02-13T15:51:00;17.30;54.10
67899;DHT22;54699;51.796;10.956;2023-02-13T15:53:28;17.30;57.10
67899;DHT22;54699;51.796;10.956;2023-02-13T15:55:56;17.30;59.10
67899;DHT22;54699;51.796;10.956;2023-02-13T15:58:27;17.20;59.50
67899;DHT22;54699;51.796;10.956;2023-02-13T16:00:58;17.30;59.10
67899;DHT22;54699;51.796;10.956;2023-02-13T16:03:28;17.30;58.10
67899;DHT22;54699;51.796;10.956;2023-02-13T16:05:58;17.30;57.00
67899;DHT22;54699;51.796;10.956;2023-02-13T16:08:32;17.30;56.60
67899;DHT22;54699;51.796;10.956;2023-02-13T16:14:03;17.30;55.50